Time;durP1;ratioP1;P1;durP2;ratioP2;P2;SDS_P1;SDS_P2;PMS_P1;PMS_P2;Temp;Humidity;BMP_temperature;BMP_pressure;BME280_temperature;BME280_humidity;BME280_pressure;Samples;Min_cycle;Max_cycle;Signal;HPM_P1;HPM_P2
2022/07/21 00:00:34;;;;;;;14.80;13.40;;;;;;;22.31;76.97;100469.34;5012783;28;20060;-61
2022/07/21 00:03:03;;;;;;;13.25;12.07;;;;;;;22.32;76.66;100477.44;5012053;28;20800;-60
2022/07/21 00:05:30;;;;;;;13.23;11.93;;;;;;;22.33;76.04;100467.72;5012396;28;20050;-61
2022/07/21 00:07:58;;;;;;;15.30;13.90;;;;;;;22.29;75.57;100455.53;5012254;28;20061;-61
2022/07/21 00:10:26;;;;;;;12.60;11.40;;;;;;;22.29;76.19;100453.50;5012316;28;20481;-61
2022/07/21 00:12:55;;;;;;;15.20;13.60;;;;;;;22.27;76.53;100444.56;5012027;28;20076;-61
2022/07/21 00:15:25;;;;;;;13.45;12.02;;;;;;;22.25;76.21;100444.16;5012487;28;20053;-61
2022/07/21 00:17:53;;;;;;;12.95;11.70;;;;;;;22.25;75.92;100447.00;5012000;28;20050;-61
2022/07/21 00:20:24;;;;;;;14.13;12.73;;;;;;;22.26;75.86;100447.84;5012487;28;20046;-61
2022/07/21 00:22:52;;;;;;;13.20;11.77;;;;;;;22.25;76.38;100447.00;5012206;28;20060;-61
2022/07/21 00:25:19;;;;;;;14.25;12.75;;;;;;;22.24;75.88;100459.56;5012435;28;20438;-61
2022/07/21 00:27:47;;;;;;;12.85;11.65;;;;;;;22.24;75.53;100462.41;5011986;28;20058;-60
2022/07/21 00:30:16;;;;;;;12.77;11.40;;;;;;;22.21;75.54;100456.66;5011696;28;20060;-61
2022/07/21 00:32:44;;;;;;;13.77;12.27;;;;;;;22.18;75.52;100463.94;5012156;28;20064;-59
2022/07/21 00:35:12;;;;;;;14.82;13.32;;;;;;;22.19;75.57;100457.06;5012142;28;20061;-61
2022/07/21 00:37:43;;;;;;;14.75;13.23;;;;;;;22.17;76.01;100462.31;5012126;28;20058;-61
2022/07/21 00:40:15;;;;;;;14.07;12.60;;;;;;;22.19;75.97;100465.56;5012045;28;20050;-60
2022/07/21 00:42:43;;;;;;;16.38;14.50;;;;;;;22.17;76.11;100467.16;5012231;28;20054;-61
2022/07/21 00:45:12;;;;;;;14.85;13.43;;;;;;;22.12;76.25;100457.00;5011941;28;20475;-61
2022/07/21 00:47:41;;;;;;;15.30;13.70;;;;;;;22.08;76.41;100453.34;5011826;28;20049;-61
2022/07/21 00:50:12;;;;;;;15.43;13.95;;;;;;;22.09;76.06;100452.13;5011783;28;20057;-61
2022/07/21 00:52:40;;;;;;;14.85;13.27;;;;;;;22.06;76.15;100456.56;5012114;28;20058;-61
2022/07/21 00:55:10;;;;;;;14.23;12.80;;;;;;;22.09;75.08;100460.66;5011519;28;20065;-60
2022/07/21 00:57:38;;;;;;;13.30;11.98;;;;;;;22.02;75.06;100467.06;5012029;28;20053;-61
2022/07/21 01:00:09;;;;;;;12.75;11.55;;;;;;;22.04;74.91;100472.34;5011747;28;20498;-60
2022/07/21 01:02:37;;;;;;;13.38;12.05;;;;;;;22.04;74.85;100480.84;5011694;28;20069;-61
2022/07/21 01:05:12;;;;;;;12.45;11.25;;;;;;;22.01;74.42;100475.97;5011637;28;20081;-60
2022/07/21 01:07:40;;;;;;;12.52;11.32;;;;;;;21.95;74.56;100480.38;5012742;28;20106;-60
2022/07/21 01:10:08;;;;;;;12.55;11.35;;;;;;;21.96;73.81;100484.84;5015108;28;20050;-60
2022/07/21 01:12:38;;;;;;;12.35;11.05;;;;;;;21.84;74.32;100477.47;5015539;28;20053;-60
2022/07/21 01:15:06;;;;;;;12.20;11.10;;;;;;;21.86;74.45;100484.38;5015133;28;20054;-60
2022/07/21 01:17:34;;;;;;;11.18;10.07;;;;;;;21.88;74.47;100496.13;5015514;28;20053;-60
2022/07/21 01:20:06;;;;;;;12.02;10.00;;;;;;;21.80;74.60;100488.75;5015055;28;20050;-60
2022/07/21 01:22:40;;;;;;;11.98;10.77;;;;;;;21.75;74.70;100491.94;5015436;28;20049;-60
2022/07/21 01:25:09;;;;;;;11.48;10.38;;;;;;;21.72;74.45;100492.72;5014885;28;20054;-60
2022/07/21 01:27:36;;;;;;;11.07;9.97;;;;;;;21.64;74.70;100483.34;5015034;28;20054;-61
2022/07/21 01:30:07;;;;;;;10.80;9.77;;;;;;;21.65;74.05;100481.34;5014717;28;20513;-60
2022/07/21 01:32:35;;;;;;;10.68;9.57;;;;;;;21.60;74.27;100467.50;4995339;28;20058;-60
2022/07/21 01:35:04;;;;;;;10.68;9.43;;;;;;;21.56;74.43;100463.81;4995087;28;20050;-60
2022/07/21 01:37:34;;;;;;;11.38;10.30;;;;;;;21.52;75.04;100466.59;4995290;28;20423;-61
2022/07/21 01:42:48;;;;;;;12.07;9.75;;;;;;;21.48;75.04;100474.25;4995354;28;20050;-60
2022/07/21 01:45:16;;;;;;;10.85;9.73;;;;;;;21.42;75.38;100484.34;4995475;28;20077;-60
2022/07/21 01:47:43;;;;;;;10.85;9.68;;;;;;;21.29;75.10;100484.56;4995609;28;20054;-60
2022/07/21 01:50:13;;;;;;;11.32;10.18;;;;;;;21.20;75.94;100488.91;4995114;28;20157;-60
2022/07/21 01:52:40;;;;;;;10.68;9.68;;;;;;;21.18;75.93;100477.94;4995356;28;20495;-61
2022/07/21 01:55:10;;;;;;;10.55;9.43;;;;;;;21.11;75.94;100480.72;4994970;28;20058;-60
2022/07/21 01:57:37;;;;;;;;;;;;;;;21.00;76.24;100489.06;4995623;28;20488;-61
2022/07/21 02:00:05;;;;;;;12.85;10.15;;;;;;;20.95;76.67;100492.22;4995182;28;20294;-60
2022/07/21 02:02:33;;;;;;;12.45;10.18;;;;;;;20.91;77.46;100494.19;4994891;28;20057;-60
2022/07/21 02:05:02;;;;;;;10.73;9.63;;;;;;;20.85;78.54;100492.91;4994895;28;20058;-60
2022/07/21 02:07:29;;;;;;;11.38;10.18;;;;;;;20.67;78.76;100489.84;4994913;28;20054;-60
2022/07/21 02:09:57;;;;;;;10.55;9.50;;;;;;;20.54;78.87;100486.41;4994741;28;20050;-60
2022/07/21 02:12:25;;;;;;;9.65;8.63;;;;;;;20.55;78.56;100487.22;4995059;28;20058;-60
2022/07/21 02:14:53;;;;;;;10.32;8.32;;;;;;;20.59;77.87;100488.13;4994897;28;20058;-60
2022/07/21 02:17:26;;;;;;;9.63;8.73;;;;;;;20.54;78.58;100492.06;4995047;28;20057;-60
2022/07/21 02:19:55;;;;;;;9.15;8.10;;;;;;;20.43;78.08;100496.72;4994184;28;20050;-59
2022/07/21 02:22:23;;;;;;;9.20;7.80;;;;;;;20.42;77.93;100495.94;4994767;28;20054;-60
2022/07/21 02:24:50;;;;;;;9.75;8.38;;;;;;;20.30;78.50;100492.50;4994835;28;20061;-60
2022/07/21 02:27:17;;;;;;;8.52;7.63;;;;;;;20.25;78.81;100502.94;4994512;28;20055;-60
2022/07/21 02:29:46;;;;;;;13.10;8.43;;;;;;;20.13;79.87;100505.97;4994672;28;20054;-60
2022/07/21 02:32:13;;;;;;;10.82;8.23;;;;;;;20.06;82.01;100508.69;5010524;28;20075;-60
2022/07/21 02:34:40;;;;;;;9.48;8.38;;;;;;;19.90;82.97;100519.31;5014182;28;20495;-60
2022/07/21 02:37:08;;;;;;;11.93;8.27;;;;;;;19.79;83.93;100516.31;5013741;28;20080;-60
2022/07/21 02:39:35;;;;;;;8.82;7.43;;;;;;;19.70;84.78;100515.69;5013875;28;20057;-60
2022/07/21 02:42:02;;;;;;;10.05;6.97;;;;;;;19.58;83.38;100517.50;5013582;28;20054;-60
2022/07/21 02:44:30;;;;;;;8.60;7.05;;;;;;;19.61;83.46;100513.09;5013480;28;20057;-60
2022/07/21 02:46:59;;;;;;;8.60;7.30;;;;;;;19.67;83.61;100503.97;5013086;28;20054;-60
2022/07/21 02:49:26;;;;;;;9.00;8.15;;;;;;;19.76;83.26;100509.41;5013826;28;20049;-60
2022/07/21 02:51:54;;;;;;;9.65;8.55;;;;;;;19.80;83.42;100509.44;5013067;28;20046;-60
2022/07/21 02:54:23;;;;;;;10.70;8.10;;;;;;;19.84;83.93;100504.66;5013553;28;20487;-60
2022/07/21 02:56:51;;;;;;;9.80;7.93;;;;;;;19.86;83.24;100499.44;5013513;28;20050;-59
2022/07/21 02:59:20;;;;;;;8.45;7.35;;;;;;;19.83;82.54;100495.38;5013169;28;20050;-59
2022/07/21 03:01:48;;;;;;;;;;;;;;;19.85;82.70;100495.81;5013642;28;20391;-60
2022/07/21 03:04:20;;;;;;;8.63;7.72;;;;;;;19.92;82.66;100497.13;5013256;28;19921;-60
2022/07/21 03:06:47;;;;;;;8.70;7.75;;;;;;;19.90;82.60;100496.69;5013146;28;20172;-60
2022/07/21 03:09:15;;;;;;;9.02;8.13;;;;;;;19.88;82.51;100499.88;5012978;28;20065;-58
2022/07/21 03:11:45;;;;;;;9.40;8.13;;;;;;;19.94;81.98;100500.41;5013027;28;20045;-60
2022/07/21 03:14:12;;;;;;;9.25;7.70;;;;;;;20.00;80.88;100498.91;5013068;28;20057;-60
2022/07/21 03:16:43;;;;;;;8.65;7.75;;;;;;;19.87;81.04;100493.44;5012988;28;20057;-60
2022/07/21 03:19:10;;;;;;;9.15;7.47;;;;;;;19.93;81.12;100502.41;5013190;28;20418;-60
2022/07/21 03:21:39;;;;;;;10.70;9.55;;;;;;;19.76;82.20;100500.91;5013326;28;20065;-60
2022/07/21 03:24:07;;;;;;;10.50;9.38;;;;;;;19.64;82.34;100499.03;5012651;28;20069;-60
2022/07/21 03:26:38;;;;;;;9.50;8.55;;;;;;;19.68;81.77;100496.28;5012810;28;20053;-60
2022/07/21 03:29:05;;;;;;;10.43;9.32;;;;;;;19.73;81.77;100498.81;5012610;28;20060;-60
2022/07/21 03:31:33;;;;;;;9.68;8.32;;;;;;;19.71;81.24;100489.09;5012143;28;20050;-60
2022/07/21 03:34:00;;;;;;;10.18;9.10;;;;;;;19.68;81.33;100485.81;5012837;28;20049;-60
2022/07/21 03:36:28;;;;;;;8.50;7.57;;;;;;;19.61;81.07;100477.22;5013072;28;20498;-60
2022/07/21 03:38:56;;;;;;;8.93;8.02;;;;;;;19.67;81.12;100484.19;5012866;28;20483;-59
2022/07/21 03:41:25;;;;;;;10.73;9.07;;;;;;;19.47;83.44;100489.06;5013085;28;20410;-60
2022/07/21 03:43:53;;;;;;;9.82;8.27;;;;;;;19.44;83.71;100489.81;5012635;28;20494;-61
2022/07/21 03:46:23;;;;;;;11.90;10.20;;;;;;;19.38;83.96;100484.81;5012937;28;20053;-60
2022/07/21 03:48:51;;;;;;;9.35;7.88;;;;;;;19.31;83.21;100490.34;5012990;28;20057;-61
2022/07/21 03:51:18;;;;;;;7.45;6.75;;;;;;;19.33;82.79;100480.28;5012496;28;20059;-60
2022/07/21 03:53:48;;;;;;;6.43;5.82;;;;;;;19.32;82.56;100475.84;5012805;28;20053;-60
2022/07/21 03:56:19;;;;;;;;;;;;;;;19.35;82.83;100463.78;5013129;28;20054;-60
2022/07/21 03:58:49;;;;;;;7.80;6.97;;;;;;;19.31;82.23;100450.81;5012569;28;19928;-60
2022/07/21 04:01:16;;;;;;;7.10;6.40;;;;;;;19.27;82.23;100443.06;5012591;28;20504;-60
2022/07/21 04:03:43;;;;;;;7.00;6.13;;;;;;;19.42;81.70;100427.22;5012534;28;20058;-60
2022/07/21 04:06:11;;;;;;;7.57;6.70;;;;;;;19.47;81.10;100423.25;5011844;28;20053;-59
2022/07/21 04:08:38;;;;;;;6.45;5.43;;;;;;;19.52;80.84;100410.81;5012247;28;20050;-60
2022/07/21 04:11:08;;;;;;;6.20;5.60;;;;;;;19.57;80.85;100407.66;5012071;28;20046;-60
2022/07/21 04:13:37;;;;;;;7.35;6.65;;;;;;;19.64;80.81;100383.19;5012432;28;20060;-60
2022/07/21 04:16:04;;;;;;;7.13;6.43;;;;;;;19.74;81.11;100383.75;5012425;28;20046;-59
2022/07/21 04:18:32;;;;;;;8.25;6.82;;;;;;;19.82;80.99;100389.19;5011932;28;20053;-60
2022/07/21 04:20:59;;;;;;;7.25;6.55;;;;;;;19.92;80.80;100410.31;5012051;28;20398;-60
2022/07/21 04:23:26;;;;;;;6.47;5.63;;;;;;;20.01;80.01;100418.50;5012262;28;20054;-59
2022/07/21 04:25:54;;;;;;;7.00;6.32;;;;;;;20.08;79.73;100415.81;5012620;28;20065;-62
2022/07/21 04:28:21;;;;;;;7.50;6.78;;;;;;;20.11;79.20;100425.53;5012207;28;20054;-61
2022/07/21 04:30:50;;;;;;;7.90;7.10;;;;;;;20.06;78.90;100433.16;5011941;28;20058;-60
2022/07/21 04:33:17;;;;;;;7.28;6.32;;;;;;;20.11;78.97;100434.84;5011924;28;20064;-61
2022/07/21 04:35:44;;;;;;;6.53;5.93;;;;;;;20.08;78.34;100433.59;5012399;28;20050;-61
2022/07/21 04:38:12;;;;;;;6.55;5.95;;;;;;;20.05;78.17;100430.69;5012069;28;20054;-61
2022/07/21 04:40:39;;;;;;;7.30;6.60;;;;;;;20.01;78.92;100433.50;5012196;28;20133;-61
2022/07/21 04:43:07;;;;;;;9.13;7.25;;;;;;;20.06;78.84;100443.66;5015265;28;20049;-60
2022/07/21 04:45:34;;;;;;;7.30;6.60;;;;;;;20.04;78.88;100440.41;5015878;28;20054;-61
2022/07/21 04:48:04;;;;;;;6.80;6.18;;;;;;;19.99;78.55;100433.06;5015485;28;20057;-60
2022/07/21 04:50:32;;;;;;;7.72;6.93;;;;;;;20.04;78.24;100429.88;5015995;28;20056;-61
2022/07/21 04:52:59;;;;;;;7.05;5.75;;;;;;;20.12;77.57;100438.50;5015665;28;20509;-61
2022/07/21 04:55:27;;;;;;;7.25;6.55;;;;;;;20.20;77.51;100426.91;5015873;28;20073;-61
2022/07/21 04:57:57;;;;;;;7.70;6.90;;;;;;;20.24;77.26;100433.44;5015986;28;20490;-61
2022/07/21 05:00:26;;;;;;;9.20;7.15;;;;;;;20.41;77.06;100439.72;5015447;28;20149;-61
2022/07/21 05:02:54;;;;;;;7.40;6.70;;;;;;;20.49;76.63;100441.44;5015188;28;20057;-61
2022/07/21 05:05:24;;;;;;;8.63;7.83;;;;;;;20.41;76.35;100442.53;5015424;28;20057;-61
2022/07/21 05:07:51;;;;;;;9.40;8.50;;;;;;;20.37;76.88;100447.34;5015227;28;20050;-60
2022/07/21 05:10:21;;;;;;;9.43;7.80;;;;;;;20.32;76.35;100444.84;5015456;28;20053;-61
2022/07/21 05:12:48;;;;;;;;;;;;;;;20.33;76.56;100446.50;5015463;28;20062;-61
2022/07/21 05:15:15;;;;;;;10.00;9.00;;;;;;;20.41;76.68;100454.69;5015380;28;19921;-61
2022/07/21 05:17:43;;;;;;;10.95;9.95;;;;;;;20.54;76.67;100440.31;5015243;28;20418;-61
2022/07/21 05:20:11;;;;;;;9.30;8.40;;;;;;;20.67;75.75;100445.38;5014808;28;20398;-61
2022/07/21 05:22:40;;;;;;;10.65;9.50;;;;;;;20.82;75.44;100445.56;5014846;28;20495;-61
2022/07/21 05:25:08;;;;;;;9.20;8.40;;;;;;;20.95;74.83;100446.13;5014461;28;20498;-60
2022/07/21 05:27:36;;;;;;;10.95;9.85;;;;;;;21.13;74.51;100449.97;5014922;28;20061;-61
2022/07/21 05:30:04;;;;;;;9.68;8.77;;;;;;;21.22;73.55;100449.66;5014741;28;20061;-61
2022/07/21 05:32:31;;;;;;;10.05;8.88;;;;;;;21.34;73.30;100448.59;5014464;28;20061;-61
2022/07/21 05:34:58;;;;;;;10.30;9.20;;;;;;;21.31;73.13;100455.03;5014978;28;20057;-61
2022/07/21 05:37:27;;;;;;;10.35;9.27;;;;;;;21.22;73.12;100458.16;5014835;28;20087;-61
2022/07/21 05:39:56;;;;;;;11.02;9.95;;;;;;;21.24;73.07;100461.44;5014972;28;20153;-61
2022/07/21 05:42:23;;;;;;;11.55;10.45;;;;;;;21.20;73.28;100458.53;5014481;28;20050;-61
2022/07/21 05:44:51;;;;;;;13.00;10.52;;;;;;;21.29;73.27;100461.91;5014754;28;20065;-61
2022/07/21 05:47:18;;;;;;;12.20;11.00;;;;;;;21.36;72.65;100461.16;5014671;28;20495;-61
2022/07/21 05:49:45;;;;;;;12.75;11.55;;;;;;;21.37;73.07;100462.78;5014704;28;20060;-61
2022/07/21 05:52:12;;;;;;;12.38;11.25;;;;;;;21.64;72.11;100451.34;5014464;28;20160;-62
2022/07/21 05:54:40;;;;;;;12.98;11.75;;;;;;;21.83;72.16;100462.44;5014061;28;20403;-61
2022/07/21 05:57:08;;;;;;;12.88;11.68;;;;;;;22.01;69.99;100458.97;5014441;28;20100;-61
2022/07/21 05:59:36;;;;;;;13.90;12.60;;;;;;;22.05;70.40;100456.97;5014668;28;20395;-62
2022/07/21 06:02:03;;;;;;;11.70;10.68;;;;;;;22.06;69.46;100461.41;5014166;28;20171;-61
2022/07/21 06:04:30;;;;;;;12.77;11.68;;;;;;;22.04;69.44;100458.97;5007269;28;20050;-62
2022/07/21 06:06:58;;;;;;;12.07;11.05;;;;;;;21.89;69.62;100458.03;4994748;28;20050;-62
2022/07/21 06:09:25;;;;;;;13.15;11.73;;;;;;;21.97;69.85;100446.78;4994295;28;20054;-62
2022/07/21 06:11:55;;;;;;;12.05;10.95;;;;;;;22.06;69.96;100447.25;4994461;28;20061;-62
2022/07/21 06:14:24;;;;;;;13.60;12.30;;;;;;;22.22;70.14;100453.44;4994209;28;20069;-61
2022/07/21 06:16:51;;;;;;;13.65;12.35;;;;;;;22.42;69.85;100459.66;4994305;28;20050;-61
2022/07/21 06:19:22;;;;;;;12.15;10.80;;;;;;;22.37;68.08;100460.06;4994220;28;20054;-61
2022/07/21 06:21:49;;;;;;;12.35;11.23;;;;;;;22.53;68.52;100464.59;4994582;28;20054;-61
2022/07/21 06:24:22;;;;;;;13.25;12.07;;;;;;;22.67;67.52;100461.84;4994475;28;20065;-59
2022/07/21 06:26:49;;;;;;;12.20;11.00;;;;;;;22.63;66.63;100469.53;4994587;28;20058;-60
2022/07/21 06:29:17;;;;;;;12.80;11.63;;;;;;;22.47;66.77;100464.19;4993926;28;20061;-60
2022/07/21 06:31:49;;;;;;;13.15;11.95;;;;;;;22.45;66.87;100477.97;4994282;28;20503;-61
2022/07/21 06:34:16;;;;;;;13.52;12.32;;;;;;;22.39;67.38;100471.81;4993797;28;20518;-60
2022/07/21 06:36:44;;;;;;;12.50;11.38;;;;;;;22.25;67.75;100480.25;4994365;28;20065;-60
2022/07/21 06:39:12;;;;;;;12.82;11.50;;;;;;;22.24;68.31;100473.75;4993829;28;20050;-60
2022/07/21 06:41:45;;;;;;;13.35;12.15;;;;;;;22.16;68.25;100480.56;4994140;28;20427;-60
2022/07/21 06:44:13;;;;;;;11.90;10.63;;;;;;;22.13;68.43;100472.81;4993786;28;20058;-60
2022/07/21 06:46:40;;;;;;;12.88;11.60;;;;;;;22.30;67.30;100477.03;4993677;28;20065;-61
2022/07/21 06:49:09;;;;;;;11.43;10.35;;;;;;;22.37;67.89;100470.59;4994018;28;20074;-60
2022/07/21 06:51:37;;;;;;;10.98;9.93;;;;;;;22.34;66.93;100474.22;4994356;28;20515;-61
2022/07/21 06:54:05;;;;;;;11.30;10.30;;;;;;;22.26;66.99;100477.00;4993857;28;20530;-61
2022/07/21 06:56:35;;;;;;;10.70;9.70;;;;;;;22.35;67.38;100478.69;4994104;28;20062;-61
2022/07/21 06:59:02;;;;;;;11.23;10.13;;;;;;;22.29;67.39;100476.22;4993933;28;20050;-59
2022/07/21 07:01:30;;;;;;;10.90;10.00;;;;;;;22.35;66.08;100484.38;4993733;28;20070;-60
2022/07/21 07:03:57;;;;;;;11.00;9.90;;;;;;;22.19;66.48;100485.41;4995926;28;20064;-61
2022/07/21 07:06:29;;;;;;;10.93;9.93;;;;;;;22.25;66.70;100492.38;5012272;28;20399;-60
2022/07/21 07:08:56;;;;;;;13.02;10.45;;;;;;;22.24;66.98;100490.78;5013635;28;20384;-60
2022/07/21 07:11:24;;;;;;;11.70;10.50;;;;;;;22.52;65.97;100483.66;5013408;28;20058;-60
2022/07/21 07:13:51;;;;;;;11.88;10.82;;;;;;;22.92;65.92;100498.88;5013441;28;20046;-60
2022/07/21 07:16:18;;;;;;;10.95;9.90;;;;;;;23.20;64.60;100491.72;5013464;28;20061;-60
2022/07/21 07:18:46;;;;;;;10.90;9.82;;;;;;;23.42;63.37;100490.59;5013077;28;20065;-60
2022/07/21 07:21:13;;;;;;;10.60;9.57;;;;;;;23.70;63.79;100494.69;5013686;28;20054;-60
2022/07/21 07:23:42;;;;;;;9.55;8.65;;;;;;;24.22;61.96;100500.84;5013083;28;20057;-60
2022/07/21 07:26:10;;;;;;;9.75;8.77;;;;;;;24.51;60.47;100495.16;5012593;28;20061;-60
2022/07/21 07:28:37;;;;;;;9.18;8.27;;;;;;;24.55;58.83;100487.41;5012712;28;20049;-60
2022/07/21 07:31:10;;;;;;;9.27;8.38;;;;;;;24.41;59.37;100493.91;5012898;28;20054;-60
2022/07/21 07:33:37;;;;;;;8.32;7.63;;;;;;;24.73;58.28;100472.31;5012956;28;20052;-60
2022/07/21 07:36:05;;;;;;;8.00;7.30;;;;;;;24.86;57.59;100464.94;5013231;28;20061;-60
2022/07/21 07:38:34;;;;;;;8.43;7.63;;;;;;;24.76;57.89;100460.06;5013318;28;20072;-60
2022/07/21 07:41:06;;;;;;;7.38;6.75;;;;;;;24.66;58.06;100456.88;5012506;28;20053;-60
2022/07/21 07:43:34;;;;;;;7.90;7.20;;;;;;;24.60;57.38;100472.75;5012754;28;20164;-59
2022/07/21 07:46:01;;;;;;;9.27;7.80;;;;;;;24.36;58.31;100465.03;5013025;28;20376;-60
2022/07/21 07:48:31;;;;;;;8.38;7.57;;;;;;;24.20;59.56;100483.38;5012096;28;20049;-60
2022/07/21 07:50:58;;;;;;;8.85;8.05;;;;;;;24.06;58.89;100494.75;5012771;28;20054;-61
2022/07/21 07:53:28;;;;;;;8.52;7.72;;;;;;;23.90;59.87;100486.63;5012085;28;20065;-60
2022/07/21 07:55:56;;;;;;;8.35;7.55;;;;;;;23.89;60.05;100490.69;5013085;28;20061;-60
2022/07/21 07:58:25;;;;;;;8.82;8.02;;;;;;;23.54;60.98;100491.41;5012693;28;20057;-59
2022/07/21 08:00:52;;;;;;;8.20;7.40;;;;;;;23.61;61.03;100491.44;5012678;28;20049;-59
2022/07/21 08:03:21;;;;;;;8.80;8.00;;;;;;;23.49;61.27;100496.28;5011875;28;20054;-60
2022/07/21 08:05:48;;;;;;;8.65;7.85;;;;;;;23.62;60.93;100491.03;5012555;28;20049;-60
2022/07/21 08:08:20;;;;;;;9.20;8.40;;;;;;;23.41;60.99;100483.25;5012141;28;20049;-59
2022/07/21 08:10:48;;;;;;;8.80;7.82;;;;;;;23.40;60.83;100486.53;5012314;28;20501;-59
2022/07/21 08:13:18;;;;;;;7.90;7.18;;;;;;;23.58;60.81;100492.22;5011949;28;20399;-58
2022/07/21 08:15:47;;;;;;;8.70;7.63;;;;;;;23.84;59.91;100489.06;5012466;28;20054;-60
2022/07/21 08:18:15;;;;;;;7.63;6.47;;;;;;;24.16;58.53;100476.84;5011654;28;20053;-60
2022/07/21 08:20:44;;;;;;;7.20;6.50;;;;;;;24.64;57.27;100479.25;5012267;28;20057;-60
2022/07/21 08:23:11;;;;;;;6.97;6.37;;;;;;;24.69;55.59;100466.63;5012002;28;20057;-59
2022/07/21 08:25:39;;;;;;;6.25;5.35;;;;;;;24.68;55.58;100462.97;5012169;28;20054;-60
2022/07/21 08:28:06;;;;;;;6.72;5.90;;;;;;;24.73;55.97;100472.31;5012122;28;20065;-59
2022/07/21 08:30:34;;;;;;;8.15;5.38;;;;;;;25.00;54.86;100467.72;5011706;28;20153;-59
2022/07/21 08:33:04;;;;;;;6.82;5.90;;;;;;;25.19;54.01;100477.00;5011879;28;20045;-60
2022/07/21 08:35:33;;;;;;;6.15;5.30;;;;;;;25.42;52.73;100487.91;5011912;28;20169;-60
2022/07/21 08:38:03;;;;;;;6.03;5.28;;;;;;;25.71;52.90;100485.69;5012259;28;20051;-61
2022/07/21 08:40:33;;;;;;;6.22;5.45;;;;;;;25.82;51.81;100485.63;5011938;28;20502;-60
2022/07/21 08:43:01;;;;;;;5.55;5.07;;;;;;;26.10;51.46;100488.28;5011887;28;20046;-60
2022/07/21 08:45:31;;;;;;;5.60;4.97;;;;;;;25.94;51.44;100496.56;5012011;28;20066;-60
2022/07/21 08:48:00;;;;;;;5.55;4.95;;;;;;;26.10;51.64;100496.84;5012047;28;20061;-60
2022/07/21 08:50:31;;;;;;;6.55;5.13;;;;;;;26.06;50.96;100498.91;5012030;28;20049;-60
2022/07/21 08:53:01;;;;;;;5.18;4.68;;;;;;;26.37;50.28;100492.50;5011812;28;20050;-60
2022/07/21 08:55:31;;;;;;;5.70;4.70;;;;;;;26.55;49.82;100498.88;5011725;28;20056;-60
2022/07/21 08:57:58;;;;;;;5.43;4.65;;;;;;;26.57;49.30;100489.91;5011365;28;20053;-60
2022/07/21 09:00:26;;;;;;;5.07;4.32;;;;;;;27.15;46.99;100487.97;5011661;28;20383;-61
2022/07/21 09:03:12;;;;;;;5.95;4.20;;;;;;;27.84;46.91;100494.38;5011825;28;20061;-61
2022/07/21 09:05:41;;;;;;;4.65;3.97;;;;;;;28.08;44.64;100485.84;5011695;28;20057;-60
2022/07/21 09:08:09;;;;;;;4.35;3.53;;;;;;;27.90;45.30;100492.66;5011911;28;20053;-61
2022/07/21 09:10:36;;;;;;;5.15;3.60;;;;;;;28.35;45.22;100482.94;5011773;28;20049;-61
2022/07/21 09:13:07;;;;;;;3.65;3.25;;;;;;;28.24;45.53;100483.09;5011915;28;20063;-61
2022/07/21 09:15:38;;;;;;;5.93;3.80;;;;;;;28.62;43.46;100484.91;5011553;28;20061;-61
2022/07/21 09:18:08;;;;;;;4.60;3.50;;;;;;;28.71;45.04;100485.16;5011496;28;20061;-60
2022/07/21 09:20:39;;;;;;;5.72;3.50;;;;;;;28.40;43.11;100490.22;5011584;28;20057;-61
2022/07/21 09:23:09;;;;;;;4.38;3.53;;;;;;;28.14;43.59;100484.13;5011217;28;20054;-60
2022/07/21 09:25:40;;;;;;;5.70;3.63;;;;;;;28.36;43.11;100483.72;5011608;28;20058;-60
2022/07/21 09:28:14;;;;;;;4.50;3.83;;;;;;;28.49;42.58;100485.53;5011966;28;20053;-60
2022/07/21 09:30:57;;;;;;;5.70;3.55;;;;;;;28.79;42.16;100488.66;5014491;28;20478;-61
2022/07/21 09:33:27;;;;;;;4.20;3.28;;;;;;;28.84;42.56;100476.69;5015018;28;20065;-61
2022/07/21 09:36:01;;;;;;;3.95;3.40;;;;;;;29.29;40.88;100476.16;5015236;28;20084;-61
2022/07/21 09:38:33;;;;;;;3.55;2.92;;;;;;;28.85;40.84;100472.56;5014931;28;20049;-60
2022/07/21 09:41:09;;;;;;;5.55;3.35;;;;;;;28.78;41.59;100476.38;5015046;28;20054;-60
2022/07/21 09:43:43;;;;;;;3.92;2.88;;;;;;;28.88;41.74;100477.44;5014494;28;20422;-60
2022/07/21 09:46:13;;;;;;;5.15;3.30;;;;;;;28.56;41.62;100469.44;5015654;28;20062;-62
2022/07/21 09:48:42;;;;;;;3.80;3.03;;;;;;;28.32;42.67;100478.84;5014830;28;20065;-61
2022/07/21 09:51:24;;;;;;;4.07;3.20;;;;;;;28.27;42.70;100470.78;5015146;28;20057;-61
2022/07/21 09:53:56;;;;;;;3.15;2.80;;;;;;;28.58;42.82;100478.41;5014794;28;20053;-61
2022/07/21 09:56:25;;;;;;;5.38;3.22;;;;;;;28.61;41.68;100481.22;5014650;28;20406;-60
2022/07/21 09:58:55;;;;;;;3.17;2.85;;;;;;;28.56;41.95;100480.91;5014950;28;20411;-61
2022/07/21 10:01:23;;;;;;;3.25;2.95;;;;;;;28.46;41.73;100485.59;5014890;28;20494;-61
2022/07/21 10:03:52;;;;;;;5.05;3.63;;;;;;;27.83;42.75;100489.91;5014344;28;20058;-60
2022/07/21 10:06:21;;;;;;;4.05;3.20;;;;;;;27.08;44.32;100488.88;5014750;28;20054;-61
2022/07/21 10:08:53;;;;;;;;;;;;;;;27.08;44.71;100488.06;5014815;28;20054;-60
2022/07/21 10:11:23;;;;;;;3.40;2.95;;;;;;;27.08;44.78;100488.88;5013984;28;20371;-59
2022/07/21 10:13:50;;;;;;;4.28;3.08;;;;;;;27.07;45.51;100483.63;5014254;28;20403;-61
2022/07/21 10:16:18;;;;;;;3.60;3.30;;;;;;;26.75;46.10;100489.69;5014693;28;20060;-59
2022/07/21 10:19:11;;;;;;;3.67;3.25;;;;;;;26.59;46.22;100485.38;5013880;28;20061;-61
2022/07/21 10:21:47;;;;;;;6.47;4.32;;;;;;;26.56;46.05;100480.47;5013810;28;20053;-60
2022/07/21 10:24:17;;;;;;;4.35;3.95;;;;;;;26.43;46.81;100488.78;5013855;28;20046;-59
2022/07/21 10:27:09;;;;;;;4.40;4.00;;;;;;;26.03;47.47;100487.53;5013921;28;20435;-59
2022/07/21 10:30:00;;;;;;;4.45;4.05;;;;;;;25.86;47.90;100492.91;5013795;28;20053;-60
2022/07/21 10:32:31;;;;;;;5.68;4.32;;;;;;;25.52;49.31;100495.59;5009056;28;20061;-60
2022/07/21 10:35:00;;;;;;;7.72;5.60;;;;;;;25.17;49.58;100497.38;5013963;28;20049;-60
2022/07/21 10:37:47;;;;;;;5.95;5.35;;;;;;;24.96;50.85;100501.13;5013663;28;20392;-60
2022/07/21 10:40:38;;;;;;;7.07;6.38;;;;;;;25.14;50.74;100500.25;5013506;28;20068;-60
2022/07/21 10:43:43;;;;;;;6.82;6.18;;;;;;;25.33;50.67;100505.50;5014076;28;20408;-61
2022/07/21 10:46:38;;;;;;;7.28;6.38;;;;;;;25.59;50.32;100500.44;5014153;28;20057;-61
2022/07/21 10:49:07;;;;;;;7.63;6.97;;;;;;;25.85;49.53;100499.88;5010951;28;20065;-61
2022/07/21 10:51:36;;;;;;;;;;;;;;;25.82;50.03;100499.88;5013821;28;20057;-60
2022/07/21 10:54:28;;;;;;;5.60;5.03;;;;;;;26.03;49.41;100498.94;5013265;28;19922;-60
2022/07/21 10:57:29;;;;;;;6.07;5.57;;;;;;;26.00;49.84;100499.78;5013110;28;20061;-60
2022/07/21 11:00:22;;;;;;;7.10;5.47;;;;;;;26.31;49.27;100512.97;5013622;28;20057;-60
2022/07/21 11:02:52;;;;;;;6.18;5.53;;;;;;;26.28;49.25;100490.16;5013642;28;20053;-60
2022/07/21 11:05:20;;;;;;;5.55;5.05;;;;;;;26.21;49.64;100496.75;5013766;28;20057;-60
2022/07/21 11:08:12;;;;;;;7.00;6.07;;;;;;;26.09;49.33;100500.13;5013282;28;20061;-60
2022/07/21 11:10:41;;;;;;;6.82;6.22;;;;;;;25.76;50.60;100504.41;5013252;28;20054;-60
2022/07/21 11:13:10;;;;;;;6.30;5.68;;;;;;;25.41;51.17;100500.53;5013429;28;20049;-60
2022/07/21 11:15:48;;;;;;;7.53;5.97;;;;;;;24.94;52.83;100486.47;5013294;28;20054;-60
2022/07/21 11:18:22;;;;;;;5.93;5.35;;;;;;;24.92;53.28;100501.16;5013172;28;20498;-61
2022/07/21 11:21:04;;;;;;;7.07;5.55;;;;;;;24.84;53.84;100496.72;5013291;28;20065;-61
2022/07/21 11:23:43;;;;;;;7.15;6.47;;;;;;;24.68;53.94;100514.22;5013234;28;20410;-60
2022/07/21 11:26:14;;;;;;;7.15;6.45;;;;;;;24.77;53.62;100504.44;5013446;28;20049;-61
2022/07/21 11:28:44;;;;;;;6.90;6.30;;;;;;;24.50;54.21;100510.59;5012467;28;20054;-60
2022/07/21 11:31:20;;;;;;;8.13;7.22;;;;;;;24.31;54.02;100508.97;5012377;28;20046;-61
2022/07/21 11:33:49;;;;;;;7.65;6.90;;;;;;;24.39;54.33;100513.44;5012165;28;20057;-60
2022/07/21 11:36:28;;;;;;;8.95;6.60;;;;;;;24.25;54.84;100494.34;5012483;28;20049;-62